MMAAMMTO

Guest
Details From MMAA - GENERAL JUAN N ALVAREZ INTL
To MMTO - Toluca Lic. Adolfo Lopez Mateos
Flight Number -
Tags generated
Created
Modified
Stats Distance 156 nm / 289 km
Max Altitude 18,500 ft / 5,639 m
Waypoints 4
Social Downloads 8
Likes 0
Share VATSIM

Download

Looking for another format? Having issues loading an existing format? Contact us
Advertisement - Login to hide

Notes

Basic altitude profile: - Ascent Rate: 2500ft/min - Ascent Speed: 250kts - Cruise Altitude: 35000ft - Cruise Speed: 420kts - Descent Rate: 1500ft/min - Descent Speed: 250kts Options: - Use NATs: yes - Use PACOTS: yes - Use low airways: yes - Use high airways: yes

Route

MMAA ACA V15W KANOX MMTO

ID Type Via Altitude Latitude Longitude Leg Dist Tot Dist Heading (true) Name
O MMAA APT - 0 ft / 0 m 16.75599˚ -99.75176˚ - 0 nm - GENERAL JUAN N ALVAREZ INTL
ACA VOR - 0 ft / 0 m 16.75847˚ -99.75397˚ 0 nm 0 nm 319° / 319° ACAPULCO VOR-DME
KANOX FIX V15W (AWY-LO) 18,500 ft / 5,639 m 17.78088˚ -99.77576˚ 61 nm 61 nm 359° / 359° -
O MMTO APT - 0 ft / 0 m 19.33707˚ -99.56601˚ 94 nm 155 nm 7° / 7° Toluca Lic. Adolfo Lopez Mateos

Altitude Profile

Advertisement - Login to hide

MMAA

Details ICAO MMAA (ACA)
Name GENERAL JUAN N ALVAREZ INTL
Region Mexico
Timezone America/Mexico_City (UTC-5.0)
Stats Elevation 16 ft / 5 m (AMSL)
Location 16.755990° -99.751756°
Runways 2
Magnetic Variation 4.974° E

METAR

MMAA 261845Z 27008KT 5SM SCT090 31/25 A2980 RMK 8/030 HZY ISOL CU CI

Decode

TAF

Not found

Departure Runways

ID Width Length Bearing (true) Bearing (mag) Surface Threshold Offset Overrun Length
06 115 ft / 35 m 5,579 ft / 1,700 m 66.91° 61.94° Concrete 0 ft / 0 m 170 ft / 52 m
10 148 ft / 45 m 10,826 ft / 3,300 m 108.10° 103.13° Concrete 0 ft / 0 m 180 ft / 55 m
24 115 ft / 35 m 5,579 ft / 1,700 m 246.92° 241.95° Concrete 0 ft / 0 m 195 ft / 59 m
28 148 ft / 45 m 10,826 ft / 3,300 m 288.10° 283.13° Concrete 0 ft / 0 m 195 ft / 59 m

MMTO

Details ICAO MMTO (TLC)
Name Toluca Lic. Adolfo Lopez Mateos
Region Mexico
Timezone America/Mexico_City (UTC-5.0)
Stats Elevation 8,466 ft / 2,580 m (AMSL)
Location 19.337072° -99.566007°
Runways 1
Magnetic Variation 4.803° E

METAR

MMTO 261848Z 27014KT 7SM SCT200 24/M04 A3028 RMK 8/002 HZY

Decode

TAF

Not found

Destination Runways

ID Width Length Bearing (true) Bearing (mag) Surface Threshold Offset Overrun Length
15 148 ft / 45 m 13,825 ft / 4,214 m 156.90° 152.10° Asphalt 0 ft / 0 m 194 ft / 59 m
33 148 ft / 45 m 13,825 ft / 4,214 m 336.91° 332.11° Asphalt 545 ft / 166 m 194 ft / 59 m

Approach Navaids

Runway Type Ident Frequency Range Bearing (true) Bearing (mag) Slope Elevation
15 Localiser ITLC 109.50 MHz 18 nm / 33 km 156.95° 152.15° - 8,466 ft / 2,580 m (AMSL)
15 Glidescope ITLC 109.50 MHz 10 nm / 19 km 156.91° 152.10° 3.00° 8,466 ft / 2,580 m (AMSL)
15 DME ITLC 109.50 MHz 18 nm / 33 km - - - 8,466 ft / 2,580 m (AMSL)

Popular Alternatives